Latest Weather Observations for Parawa West

IDS60901

Issued at 5:21 pm CST Wednesday 4 May 2016 (issued every 10 minutes, with the page automatically refreshed every 10 minutes)

About weather observations | Map of Adelaide area stations | Latest observations for Adelaide area | Other Formats
Station Details ID: 023875 Name: SECOND VALLEY FOREST AWS Lat: -35.57 Lon: 138.29 Height: 341.0 m
Data from the previous 72 hours. | See also: Recent months at Parawa West
Date/Time
CST
Tmp

°C
App
Tmp
°C
Dew
Point
°C
Rel
Hum
%
Delta-T

°C
Wind Press
QNH
hPa
Press
MSL
hPa
Rain
since
9 am
mm
Dir
 
Spd
km/h
Gust
km/h
Spd
kts
Gust
kts
04/05:00pm 14.0 9.3 10.8 81 1.7 NW 26 39 14 21 1013.8 1013.7 0.2
04/04:30pm 13.9 9.7 11.2 84 1.5 NW 24 35 13 19 1013.9 1013.8 0.2
04/04:00pm 14.0 10.1 10.8 81 1.7 NW 22 35 12 19 1013.8 1013.7 0.2
04/03:30pm 14.3 10.5 11.3 82 1.6 NW 22 35 12 19 1013.8 1013.7 0.2
04/03:00pm 14.0 9.3 10.6 80 1.8 NW 26 39 14 21 1013.8 1013.7 0.2
04/02:30pm 13.4 9.3 11.5 88 1.0 NW 24 41 13 22 1014.0 1013.9 0.2
04/02:00pm 13.4 9.6 11.3 87 1.1 NW 22 32 12 17 1014.2 1014.0 0.2
04/01:30pm 14.0 10.6 11.2 83 1.5 NNW 20 33 11 18 1014.4 1014.2 0.2
04/01:00pm 13.8 9.5 10.8 82 1.6 NW 24 37 13 20 1014.7 1014.5 0.2
04/12:30pm 14.2 9.4 10.4 78 2.0 NW 26 37 14 20 1015.0 1014.8 0.2
04/12:00pm 13.7 9.3 10.5 81 1.7 NW 24 39 13 21 1015.3 1015.2 0.2
04/11:30am 12.3 10.2 11.2 93 0.6 NW 13 24 7 13 1015.8 1015.7 0.0
04/11:00am 13.1 9.5 9.9 81 1.7 NW 19 28 10 15 1016.1 1016.0 0.0
04/10:30am 13.2 9.9 9.6 79 1.9 NW 17 30 9 16 1016.1 1016.0 0.0
04/10:00am 13.2 10.3 9.6 79 1.9 NW 15 22 8 12 1016.2 1016.1 0.0
04/09:30am 12.2 10.0 9.2 82 1.5 WNW 11 17 6 9 1016.2 1016.1 0.0
04/09:00am 11.8 10.9 9.2 84 1.3 WNW 4 6 2 3 1016.2 1016.1 3.0
04/08:30am 10.9 9.9 9.0 88 1.0 WNW 4 6 2 3 1016.0 1015.9 3.0
04/08:00am 9.9 8.2 8.5 91 0.7 WNW 7 9 4 5 1015.7 1015.6 3.0
04/07:30am 9.5 7.8 8.4 93 0.5 WNW 7 9 4 5 1015.4 1015.3 3.0
04/07:00am 9.3 7.6 8.4 94 0.4 WNW 7 9 4 5 1014.9 1014.7 3.0
04/06:30am 9.4 7.4 8.6 95 0.4 W 9 11 5 6 1014.5 1014.3 3.0
04/06:00am 9.2 7.5 8.4 95 0.4 WNW 7 11 4 6 1014.3 1014.1 3.0
04/05:30am 9.4 7.4 8.6 95 0.4 W 9 11 5 6 1014.2 1014.0 3.0
04/05:00am 9.9 8.4 9.0 94 0.5 W 7 9 4 5 1013.7 1013.6 3.0
04/04:30am 10.0 8.1 9.1 94 0.5 W 9 13 5 7 1013.5 1013.4 3.0
04/04:00am 10.2 8.0 9.4 95 0.4 W 11 19 6 10 1013.5 1013.4 2.8
04/03:30am 10.3 8.5 9.4 94 0.5 W 9 15 5 8 1013.4 1013.3 2.8
04/03:00am 10.5 8.6 9.1 91 0.7 WNW 9 15 5 8 1013.4 1013.3 2.8
04/02:30am 10.7 8.7 8.8 88 1.0 WNW 9 13 5 7 1013.3 1013.2 2.8
04/02:00am 10.7 9.2 8.5 86 1.1 WNW 6 7 3 4 1013.0 1012.9 2.8
04/01:30am 10.8 8.7 8.4 85 1.2 WNW 9 15 5 8 1012.9 1012.8 2.8
04/01:00am 10.8 8.3 8.2 84 1.3 W 11 15 6 8 1012.9 1012.8 2.8
04/12:30am 10.6 8.5 8.4 86 1.1 W 9 13 5 7 1012.8 1012.7 2.8
04/12:00am 10.6 8.1 8.4 86 1.1 W 11 17 6 9 1012.9 1012.8 2.8
 
Date/Time
CST
Tmp

°C
App
Tmp
°C
Dew
Point
°C
Rel
Hum
%
Delta-T

°C
Wind Press
QNH
hPa
Press
MSL
hPa
Rain
since
9 am
mm
Dir
 
Spd
km/h
Gust
km/h
Spd
kts
Gust
kts
03/11:30pm 10.7 8.2 8.3 85 1.2 W 11 15 6 8 1012.8 1012.7 2.8
03/11:00pm 10.9 8.0 8.3 84 1.3 W 13 17 7 9 1013.0 1012.9 2.8
03/10:30pm 11.2 8.7 8.2 82 1.5 WSW 11 17 6 9 1012.9 1012.8 2.8
03/10:00pm 11.2 8.7 8.1 81 1.5 W 11 17 6 9 1012.9 1012.8 2.8
03/09:30pm 11.0 8.5 8.1 82 1.4 W 11 17 6 9 1012.6 1012.4 2.8
03/09:00pm 10.9 8.4 8.1 83 1.4 W 11 15 6 8 1012.5 1012.3 2.8
03/08:30pm 11.6 9.5 8.3 80 1.7 WSW 9 17 5 9 1012.2 1012.0 2.8
03/08:00pm 11.7 8.8 8.0 78 1.8 W 13 20 7 11 1011.8 1011.6 2.6
03/07:30pm 11.9 7.8 8.0 77 1.9 W 19 28 10 15 1011.4 1011.2 2.6
03/07:00pm 11.9 9.1 8.7 81 1.6 WSW 13 20 7 11 1010.8 1010.7 2.6
03/06:30pm 12.2 8.4 7.7 74 2.2 W 17 26 9 14 1010.2 1010.1 2.6
03/06:00pm 12.2 8.0 7.5 73 2.3 W 19 28 10 15 1009.8 1009.6 2.6
03/05:30pm 12.7 8.5 7.6 71 2.5 W 19 32 10 17 1009.2 1009.0 2.6
03/05:00pm 12.9 8.9 9.2 78 1.9 W 20 37 11 20 1008.7 1008.5 2.6
03/04:30pm 12.9 9.5 10.6 86 1.2 W 19 28 10 15 1008.4 1008.2 2.6
03/04:00pm 12.7 9.8 10.9 89 1.0 W 17 30 9 16 1008.1 1007.9 2.6
03/03:30pm 11.9 9.9 11.4 97 0.3 W 13 20 7 11 1007.6 1007.4 2.6
03/03:09pm 11.6 6.6 10.8 95 0.4 W 28 48 15 26 1007.2 1007.0 2.6
03/03:00pm 12.4 9.2 11.8 96 0.3 W 20 37 11 20 1007.0 1006.8 2.4
03/02:30pm 12.6 9.6 12.1 97 0.3 W 19 30 10 16 1006.7 1006.5 2.4
03/02:00pm 12.4 9.4 11.8 96 0.3 WSW 19 30 10 16 1006.3 1006.1 2.4
03/01:30pm 13.2 9.8 12.6 96 0.3 W 22 37 12 20 1006.0 1005.8 2.2
03/01:00pm 12.9 9.5 12.6 98 0.2 W 22 35 12 19 1005.9 1005.7 2.2
03/12:34pm 13.6 8.8 11.8 89 1.0 WNW 28 48 15 26 1005.6 1005.4 0.8
03/12:30pm 13.8 8.6 11.5 86 1.3 WNW 30 43 16 23 1005.6 1005.4 0.8
03/12:08pm 14.5 10.0 12.5 88 1.1 WNW 28 50 15 27 1005.7 1005.5 0.8
03/12:00pm 14.3 10.7 13.2 93 0.6 WNW 24 37 13 20 1005.8 1005.6 0.8
03/11:33am 13.0 7.0 12.2 95 0.4 W 35 54 19 29 1006.2 1006.0 0.8
03/11:30am 13.0 6.6 11.9 93 0.6 W 37 54 20 29 1006.2 1006.0 0.8
03/11:00am 15.4 9.3 10.6 73 2.6 WNW 33 56 18 30 1005.8 1005.6 0.0
03/10:32am 15.2 8.7 10.2 72 2.7 WNW 35 54 19 29 1005.5 1005.3 0.0
03/10:30am 15.2 8.7 10.2 72 2.7 WNW 35 54 19 29 1005.5 1005.3 0.0
03/10:00am 15.2 9.5 11.0 76 2.3 WNW 32 61 17 33 1005.5 1005.3 0.0
03/09:50am 14.9 9.4 10.7 76 2.3 WNW 30 50 16 27 1005.2 1005.0 0.0
03/09:30am 14.2 8.6 11.4 83 1.5 WNW 32 46 17 25 1005.4 1005.2 0.0
03/09:06am 13.6 9.1 12.7 94 0.5 WNW 28 48 15 26 1005.1 1004.8 0.0
03/09:00am 13.3 8.4 12.5 95 0.4 WNW 30 44 16 24 1005.3 1005.1 8.8
03/08:30am 13.7 8.2 13.7 100 0.0 WNW 35 57 19 31 1004.8 1004.6 8.6
03/08:00am 13.9 8.5 13.9 100 0.0 NW 35 59 19 32 1004.1 1003.9 8.0
03/07:30am 14.0 7.5 14.0 100 0.0 NW 41 63 22 34 1003.7 1003.5 7.0
03/07:00am 13.7 7.8 13.5 99 0.1 NW 37 59 20 32 1003.2 1003.0 4.2
03/06:30am 14.0 7.8 13.7 98 0.2 NW 39 63 21 34 1003.0 1002.8 2.6
03/06:00am 13.9 7.2 13.4 97 0.3 NW 41 67 22 36 1003.3 1003.1 2.6
03/05:32am 14.4 8.3 13.1 92 0.7 NW 37 57 20 31 1003.3 1003.1 2.4
03/05:30am 14.4 8.3 13.1 92 0.7 NW 37 52 20 28 1003.4 1003.2 2.4
03/05:00am 14.4 8.0 13.1 92 0.7 NW 39 59 21 32 1003.6 1003.4 2.4
03/04:30am 14.4 8.0 13.1 92 0.7 NW 39 63 21 34 1003.5 1003.3 2.4
03/04:00am 14.0 7.3 13.4 96 0.3 NW 41 67 22 36 1003.4 1003.2 2.4
03/03:30am 13.8 7.4 13.3 97 0.3 NW 39 59 21 32 1003.8 1003.6 2.4
03/03:00am 14.3 7.5 13.2 93 0.6 NW 41 61 22 33 1003.9 1003.7 2.4
03/02:30am 14.3 8.6 12.9 91 0.8 NW 35 57 19 31 1004.5 1004.3 2.4
03/02:00am 14.4 7.3 12.1 86 1.3 NW 41 67 22 36 1004.5 1004.3 2.4
03/01:30am 14.3 7.7 12.7 90 0.9 NNW 39 59 21 32 1005.0 1004.7 2.4
03/01:00am 14.4 7.3 12.3 87 1.2 NW 41 63 22 34 1005.8 1005.6 2.4
03/12:30am 14.3 7.6 12.2 87 1.2 NW 39 70 21 38 1006.3 1006.1 2.4
03/12:00am 14.4 6.9 12.8 90 0.9 NW 44 65 24 35 1006.6 1006.4 2.4
 
Date/Time
CST
Tmp

°C
App
Tmp
°C
Dew
Point
°C
Rel
Hum
%
Delta-T

°C
Wind Press
QNH
hPa
Press
MSL
hPa
Rain
since
9 am
mm
Dir
 
Spd
km/h
Gust
km/h
Spd
kts
Gust
kts
02/11:30pm 14.3 8.2 12.9 91 0.8 NW 37 59 20 32 1007.0 1006.8 2.4
02/11:00pm 14.3 8.2 12.9 91 0.8 NW 37 57 20 31 1007.5 1007.3 2.4
02/10:30pm 14.3 8.1 12.7 90 0.9 NW 37 57 20 31 1007.7 1007.6 2.4
02/10:00pm 14.5 8.8 12.9 90 0.9 NW 35 56 19 30 1007.7 1007.6 2.4
02/09:30pm 14.5 8.3 12.7 89 1.0 NW 37 63 20 34 1008.1 1007.9 2.4
02/09:00pm 14.3 8.6 13.0 92 0.7 NW 35 56 19 30 1008.2 1008.0 2.4
02/08:30pm 14.1 8.7 12.7 91 0.8 NW 33 56 18 30 1008.4 1008.2 2.4
02/08:05pm 14.3 8.9 12.9 91 0.8 NW 33 54 18 29 1008.7 1008.5 2.4
02/08:00pm 14.3 8.9 12.9 91 0.8 NW 33 50 18 27 1008.7 1008.5 2.4
02/07:30pm 14.3 9.1 12.7 90 0.9 NW 32 52 17 28 1008.8 1008.6 2.4
02/07:04pm 14.2 9.4 12.8 91 0.8 NW 30 48 16 26 1008.9 1008.7 2.4
02/07:00pm 14.3 9.1 12.7 90 0.9 NW 32 48 17 26 1008.8 1008.6 2.4
02/06:35pm 14.3 9.0 12.5 89 1.0 NW 32 52 17 28 1008.7 1008.5 2.4
02/06:30pm 14.3 8.8 12.5 89 1.0 NW 33 48 18 26 1008.7 1008.5 2.4
02/06:06pm 14.2 8.8 12.2 88 1.1 NW 32 57 17 31 1008.6 1008.4 2.4
02/06:00pm 14.2 8.9 12.4 89 1.0 NW 32 44 17 24 1008.6 1008.4 2.4
02/05:34pm 15.1 9.6 11.7 80 1.9 NW 32 50 17 27 1008.4 1008.2 2.4
02/05:30pm 15.1 9.6 11.9 81 1.8 NW 32 48 17 26 1008.4 1008.2 2.4
02/05:00pm 15.2 10.1 11.8 80 1.9 NW 30 48 16 26 1008.4 1008.2 2.4
02/04:30pm 15.1 9.7 12.1 82 1.7 NW 32 54 17 29 1008.6 1008.4 2.4
02/04:23pm 14.9 10.3 12.2 84 1.5 NW 28 48 15 26 1008.6 1008.4 2.4
02/04:00pm 14.8 10.9 13.2 90 0.9 NW 26 46 14 25 1009.1 1008.9 2.4
02/03:30pm 12.8 8.3 11.5 92 0.7 NW 26 46 14 25 1009.3 1009.1 2.4
02/03:00pm 15.1 9.4 11.3 78 2.1 NW 32 57 17 31 1009.2 1009.0 0.0
02/02:30pm 14.9 8.7 11.3 79 2.0 NW 35 56 19 30 1009.2 1009.0 0.0
02/02:00pm 15.0 9.2 11.4 79 2.0 NW 33 57 18 31 1009.3 1009.1 0.0
02/01:30pm 14.9 8.7 11.5 80 1.9 NW 35 59 19 32 1009.6 1009.4 0.0
02/01:00pm 14.7 8.8 11.3 80 1.8 NW 33 56 18 30 1010.0 1009.8 0.0
02/12:33pm 14.7 8.0 10.9 78 2.0 NW 37 57 20 31 1010.4 1010.3 0.0
02/12:30pm 14.8 8.5 11.2 79 2.0 NW 35 52 19 28 1010.4 1010.3 0.0
02/12:00pm 14.5 8.5 10.9 79 1.9 NW 33 52 18 28 1010.8 1010.7 0.0
02/11:34am 15.0 10.0 10.8 76 2.3 NW 28 50 15 27 1011.3 1011.1 0.0
02/11:30am 15.2 9.5 11.0 76 2.3 NW 32 48 17 26 1011.4 1011.2 0.0
02/11:03am 14.4 8.9 10.4 77 2.1 NW 30 50 16 27 1011.6 1011.4 0.0
02/11:00am 14.3 8.8 10.5 78 2.0 NW 30 48 16 26 1011.7 1011.5 0.0
02/10:30am 13.7 9.1 10.9 83 1.5 NW 26 39 14 21 1012.1 1011.9 0.0
02/10:00am 13.3 7.9 11.0 86 1.2 NW 30 54 16 29 1012.1 1011.9 0.0
02/09:42am 13.3 8.2 10.5 83 1.5 NW 28 48 15 26 1012.2 1012.0 0.0
02/09:30am 13.5 7.9 10.1 80 1.8 NW 30 44 16 24 1012.3 1012.1 0.0
02/09:06am 13.4 8.1 9.8 79 1.9 NW 28 52 15 28 1012.4 1012.2 0.0
02/09:00am 13.4 8.1 9.8 79 1.9 NW 28 44 15 24 1012.4 1012.2 0.0
02/08:32am 13.1 7.8 9.9 81 1.7 NW 28 50 15 27 1012.4 1012.2 0.0
02/08:30am 13.0 8.1 9.8 81 1.7 NW 26 44 14 24 1012.4 1012.2 0.0
02/08:03am 12.8 7.4 9.4 80 1.8 NW 28 46 15 25 1012.3 1012.1 0.0
02/08:00am 12.9 7.9 9.5 80 1.8 NW 26 46 14 25 1012.3 1012.1 0.0
02/07:35am 12.9 7.4 9.2 78 1.9 NW 28 46 15 25 1012.1 1011.9 0.0
02/07:30am 12.9 6.6 9.0 77 2.0 NW 32 46 17 25 1011.9 1011.7 0.0
02/07:02am 12.8 7.1 8.5 75 2.2 NW 28 46 15 25 1012.2 1012.0 0.0
02/07:00am 12.8 7.5 8.5 75 2.2 NW 26 46 14 25 1012.1 1011.9 0.0
02/06:30am 12.8 7.4 7.9 72 2.5 NW 26 43 14 23 1012.2 1012.0 0.0
02/06:00am 12.7 7.6 7.6 71 2.5 NW 24 41 13 22 1012.2 1012.0 0.0
02/05:30am 12.6 7.1 7.7 72 2.4 NW 26 43 14 23 1012.5 1012.3 0.0
02/05:00am 12.9 8.0 6.7 66 3.0 NW 22 35 12 19 1012.5 1012.3 0.0
02/04:30am 12.8 7.4 6.4 65 3.1 NW 24 43 13 23 1012.6 1012.4 0.0
02/04:00am 12.2 7.5 6.0 66 3.0 NW 20 30 11 16 1013.0 1012.9 0.0
02/03:30am 12.2 7.6 6.3 67 2.8 NW 20 33 11 18 1013.2 1013.1 0.0
02/03:00am 12.4 7.6 7.5 72 2.4 NW 22 37 12 20 1013.4 1013.3 0.0
02/02:30am 12.4 8.4 8.1 75 2.2 NNW 19 28 10 15 1014.0 1013.9 0.0
02/02:00am 12.1 7.6 7.0 71 2.5 NW 20 32 11 17 1014.4 1014.2 0.0
02/01:30am 12.3 7.9 7.2 71 2.5 NW 20 32 11 17 1014.6 1014.4 0.0
02/01:00am 12.2 7.9 6.9 70 2.6 NW 19 28 10 15 1014.7 1014.5 0.0
02/12:30am 12.5 8.4 6.1 65 3.1 WNW 17 30 9 16 1015.1 1014.9 0.0
02/12:00am 12.5 8.1 5.0 60 3.5 WNW 17 26 9 14 1015.6 1015.5 0.0
 
Date/Time
CST
Tmp

°C
App
Tmp
°C
Dew
Point
°C
Rel
Hum
%
Delta-T

°C
Wind Press
QNH
hPa
Press
MSL
hPa
Rain
since
9 am
mm
Dir
 
Spd
km/h
Gust
km/h
Spd
kts
Gust
kts
01/11:30pm 12.3 8.4 5.5 63 3.2 WNW 15 24 8 13 1016.0 1015.9 0.0
01/11:00pm 11.9 8.0 5.5 65 3.0 NW 15 22 8 12 1016.2 1016.1 0.0
01/10:30pm 11.4 8.5 6.5 72 2.4 WNW 11 17 6 9 1016.7 1016.6 0.0
01/10:00pm 10.8 8.4 6.9 77 1.9 WNW 9 15 5 8 1017.0 1016.9 0.0
01/09:30pm 10.9 8.2 7.2 78 1.8 WNW 11 19 6 10 1017.1 1017.0 0.0
01/09:00pm 11.1 9.2 6.8 75 2.1 WNW 6 9 3 5 1017.4 1017.2 0.0
01/08:30pm 10.9 8.8 6.6 75 2.1 WNW 7 13 4 7 1017.5 1017.3 0.0
01/08:00pm 10.8 9.0 7.1 78 1.8 WSW 6 7 3 4 1017.4 1017.2 0.0
01/07:30pm 10.9 9.4 7.0 77 1.9 WSW 4 6 2 3 1017.4 1017.2 0.0
01/07:00pm 11.9 9.5 6.8 71 2.5 W 9 15 5 8 1017.4 1017.2 0.0
01/06:30pm 12.4 10.0 7.1 70 2.6 WNW 9 15 5 8 1017.0 1016.9 0.0
01/06:00pm 12.4 10.0 6.9 69 2.7 NW 9 15 5 8 1016.8 1016.7 0.0
01/05:30pm 12.6 9.8 7.1 69 2.7 WNW 11 17 6 9 1016.7 1016.6 0.0

Latest Capital City Observations: Canberra | Sydney | Melbourne | Brisbane | Adelaide | Perth | Hobart | Darwin

Other Formats:

Comma delimited format used in spreadsheet applications
http://www.bom.gov.au/fwo/IDS60901/IDS60901.94811.axf

JavaScript Object Notation format (JSON) in row-major order
http://www.bom.gov.au/fwo/IDS60901/IDS60901.94811.json